UAE30 EGLL-OMDB
Flight info
| Callsign | UAE30 |
|---|---|
| Flight time | N/A |
| Altitude | 35000 |
| Route | MAXIT Y803 MID L612 BOGNA UL612 VEULE DCT KOTAP DCT KETEX DCT KOTIS DCT KUKOR DCT UTUVA DCT TITVA DCT NOQAS DCT OTROT DCT RETNO DCT KOLON DCT RAPUR DCT RATAP DCT BTA/N0480F360 DCT MOULE DCT XOPTA/N0483F350 DCT RIFFI DCT PNZ DCT MASOT DCT BELIX DCT SALUN/N0485F370 N705 MMA P751 DASUM Y234 FYM M872 BDB Y214 SIKNU/N0486F390 Y214 RAPMA DCT KUVSO DCT KATIT DCT PEKEM M628 RIGIL G783 ELUDA/N0504F350 G783 ASPED Q308 KIPOK Q568 IMPED |
| Aircraft | B77W/H-SDE1E2E3FGHIJ2J3J4J5M1RWXY/LB1D1 |
Departure
| Time | 2026-05-04 06:40 |
|---|---|
| Airport | London Heathrow Airport (EGLL) |
Arrival
| Time | N/A |
|---|---|
| Airport | Dubai International Airport (OMDB) |
| Time | Latitude | Longitude | Altitude | Speed | Heading |
|---|---|---|---|---|---|
| 2026-05-04 05:40 | 51.46940 | -0.44191 | 90 ft | 0 kts | 271° |
| 2026-05-04 06:25 | 51.46983 | -0.44057 | 90 ft | 0 kts | 180° |
| 2026-05-04 06:29 | 51.46977 | -0.44057 | 94 ft | 4 kts | 180° |
| 2026-05-04 06:29 | 51.46942 | -0.44057 | 93 ft | 5 kts | 179° |
| 2026-05-04 06:29 | 51.46908 | -0.44056 | 93 ft | 5 kts | 179° |
| 2026-05-04 06:30 | 51.46872 | -0.44056 | 93 ft | 6 kts | 179° |
| 2026-05-04 06:30 | 51.46810 | -0.44059 | 92 ft | 11 kts | 189° |
| 2026-05-04 06:30 | 51.46758 | -0.44132 | 94 ft | 11 kts | 253° |
| 2026-05-04 06:30 | 51.46752 | -0.44251 | 90 ft | 11 kts | 270° |
| 2026-05-04 06:31 | 51.46752 | -0.44371 | 90 ft | 11 kts | 270° |
| 2026-05-04 06:31 | 51.46753 | -0.44516 | 90 ft | 18 kts | 270° |
| 2026-05-04 06:31 | 51.46753 | -0.44758 | 90 ft | 23 kts | 270° |
| 2026-05-04 06:31 | 51.46753 | -0.44995 | 91 ft | 20 kts | 270° |
| 2026-05-04 06:32 | 51.46753 | -0.45219 | 91 ft | 20 kts | 269° |
| 2026-05-04 06:33 | 51.46748 | -0.46794 | 93 ft | 20 kts | 269° |
| 2026-05-04 06:34 | 51.46747 | -0.47019 | 93 ft | 20 kts | 270° |
| 2026-05-04 06:34 | 51.46746 | -0.47244 | 93 ft | 20 kts | 270° |
| 2026-05-04 06:34 | 51.46746 | -0.47465 | 93 ft | 20 kts | 270° |
| 2026-05-04 06:34 | 51.46746 | -0.47690 | 93 ft | 20 kts | 270° |
| 2026-05-04 06:35 | 51.46745 | -0.47915 | 90 ft | 20 kts | 269° |
| 2026-05-04 06:36 | 51.46970 | -0.48472 | 93 ft | 13 kts | 0° |
| 2026-05-04 06:37 | 51.47061 | -0.48472 | 93 ft | 13 kts | 360° |
| 2026-05-04 06:37 | 51.47156 | -0.48474 | 93 ft | 16 kts | 359° |
| 2026-05-04 06:37 | 51.47285 | -0.48477 | 90 ft | 19 kts | 360° |
| 2026-05-04 06:37 | 51.47413 | -0.48477 | 90 ft | 16 kts | 0° |
| 2026-05-04 06:38 | 51.47487 | -0.48534 | 94 ft | 11 kts | 284° |
| 2026-05-04 06:38 | 51.47484 | -0.48664 | 93 ft | 12 kts | 270° |
| 2026-05-04 06:40 | 51.47753 | -0.48439 | 98 ft | 85 kts | 92° |
| 2026-05-04 06:40 | 51.47754 | -0.47153 | 95 ft | 134 kts | 90° |
| 2026-05-04 06:40 | 51.47759 | -0.45178 | 150 ft | 218 kts | 90° |
| 2026-05-04 06:40 | 51.47750 | -0.42525 | 1052 ft | 251 kts | 88° |
| 2026-05-04 06:41 | 51.47838 | -0.39741 | 2165 ft | 254 kts | 86° |
| 2026-05-04 06:41 | 51.47946 | -0.36656 | 1837 ft | 304 kts | 85° |
| 2026-05-04 06:41 | 51.48119 | -0.33018 | 1793 ft | 336 kts | 84° |
| 2026-05-04 06:41 | 51.48332 | -0.29579 | 4020 ft | 283 kts | 83° |
| 2026-05-04 06:42 | 51.48489 | -0.26533 | 5526 ft | 272 kts | 88° |
| 2026-05-04 06:42 | 51.48441 | -0.23483 | 6002 ft | 275 kts | 98° |
| 2026-05-04 06:42 | 51.48025 | -0.20494 | 5797 ft | 275 kts | 109° |
| 2026-05-04 06:44 | 51.41019 | -0.03223 | 6023 ft | 278 kts | 102° |
| 2026-05-04 06:44 | 51.40603 | -0.00176 | 6025 ft | 281 kts | 104° |
| 2026-05-04 06:44 | 51.40146 | 0.02847 | 6022 ft | 278 kts | 105° |
| 2026-05-04 06:45 | 51.39664 | 0.05827 | 6014 ft | 275 kts | 106° |
| 2026-05-04 06:45 | 51.39164 | 0.08787 | 6025 ft | 276 kts | 106° |
| 2026-05-04 06:45 | 51.38649 | 0.11747 | 6027 ft | 276 kts | 107° |
| 2026-05-04 06:45 | 51.38124 | 0.14710 | 6205 ft | 277 kts | 107° |
| 2026-05-04 06:46 | 51.37592 | 0.17683 | 6941 ft | 279 kts | 107° |
| 2026-05-04 06:46 | 51.37053 | 0.20669 | 7688 ft | 280 kts | 107° |
| 2026-05-04 06:46 | 51.36506 | 0.23679 | 8396 ft | 284 kts | 107° |
| 2026-05-04 06:46 | 51.35950 | 0.26731 | 9115 ft | 287 kts | 108° |
| 2026-05-04 06:48 | 51.31533 | 0.51699 | 12293 ft | 386 kts | 104° |
| 2026-05-04 06:48 | 51.30899 | 0.55876 | 13151 ft | 387 kts | 109° |
| 2026-05-04 06:49 | 51.29716 | 0.59750 | 13882 ft | 391 kts | 128° |
| 2026-05-04 06:50 | 51.14321 | 0.78471 | 19350 ft | 414 kts | 147° |
| 2026-05-04 06:51 | 51.11976 | 0.81178 | 19993 ft | 419 kts | 147° |
| 2026-05-04 06:51 | 51.09604 | 0.83919 | 20631 ft | 424 kts | 147° |
| 2026-05-04 06:51 | 51.07203 | 0.86693 | 21273 ft | 429 kts | 147° |
| 2026-05-04 06:51 | 51.04773 | 0.89501 | 21905 ft | 434 kts | 147° |
| 2026-05-04 06:52 | 51.02313 | 0.92338 | 22538 ft | 439 kts | 147° |
| 2026-05-04 06:52 | 50.99832 | 0.95198 | 23138 ft | 444 kts | 148° |
| 2026-05-04 06:52 | 50.98171 | 0.97111 | 23547 ft | 447 kts | 148° |
| 2026-05-04 06:52 | 50.95614 | 1.00053 | 24097 ft | 450 kts | 148° |
| 2026-05-04 06:53 | 50.93114 | 1.02927 | 24715 ft | 450 kts | 148° |
| 2026-05-04 06:53 | 50.90586 | 1.05830 | 25396 ft | 449 kts | 148° |
| 2026-05-04 06:53 | 50.88061 | 1.08725 | 26038 ft | 448 kts | 149° |
| 2026-05-04 06:53 | 50.85528 | 1.11623 | 26635 ft | 449 kts | 149° |
| 2026-05-04 06:54 | 50.82993 | 1.14520 | 27199 ft | 450 kts | 149° |
| 2026-05-04 06:54 | 50.80450 | 1.17419 | 27723 ft | 452 kts | 149° |
| 2026-05-04 06:54 | 50.77896 | 1.20328 | 28219 ft | 453 kts | 149° |
| 2026-05-04 06:54 | 50.75336 | 1.23239 | 28720 ft | 454 kts | 149° |
| 2026-05-04 06:55 | 50.72765 | 1.26160 | 29190 ft | 456 kts | 150° |
| 2026-05-04 06:55 | 50.70187 | 1.29084 | 29642 ft | 457 kts | 150° |
| 2026-05-04 06:55 | 50.67604 | 1.32011 | 30038 ft | 458 kts | 150° |
| 2026-05-04 06:55 | 50.65023 | 1.34932 | 30426 ft | 457 kts | 150° |
| 2026-05-04 06:56 | 50.62430 | 1.37861 | 30762 ft | 458 kts | 149° |
| 2026-05-04 06:57 | 50.44301 | 1.58234 | 33194 ft | 458 kts | 150° |
| 2026-05-04 06:58 | 50.41703 | 1.61136 | 33507 ft | 458 kts | 150° |
| 2026-05-04 06:58 | 50.39108 | 1.64032 | 33803 ft | 458 kts | 150° |
| 2026-05-04 06:58 | 50.36510 | 1.66927 | 34078 ft | 459 kts | 150° |
| 2026-05-04 06:58 | 50.33906 | 1.69825 | 34315 ft | 460 kts | 150° |
| 2026-05-04 06:59 | 50.31293 | 1.72728 | 34531 ft | 461 kts | 149° |
| 2026-05-04 06:59 | 50.28714 | 1.75590 | 34765 ft | 461 kts | 149° |
| 2026-05-04 06:59 | 50.26055 | 1.78537 | 34897 ft | 464 kts | 149° |
| 2026-05-04 06:59 | 50.23448 | 1.81421 | 34934 ft | 467 kts | 149° |
| 2026-05-04 07:01 | 50.02473 | 2.04498 | 34984 ft | 458 kts | 150° |
| 2026-05-04 07:02 | 49.97256 | 2.10194 | 34983 ft | 459 kts | 150° |
| 2026-05-04 07:02 | 49.92024 | 2.15894 | 34972 ft | 459 kts | 149° |
| 2026-05-04 07:03 | 49.86790 | 2.21581 | 34972 ft | 459 kts | 150° |
| 2026-05-04 07:03 | 49.81553 | 2.27256 | 34958 ft | 459 kts | 150° |
| 2026-05-04 07:04 | 49.76318 | 2.32915 | 34968 ft | 459 kts | 150° |
| 2026-05-04 07:04 | 49.71082 | 2.38559 | 34967 ft | 459 kts | 150° |
| 2026-05-04 07:05 | 49.65849 | 2.44184 | 34969 ft | 458 kts | 150° |
| 2026-05-04 07:05 | 49.60625 | 2.49784 | 34969 ft | 457 kts | 150° |
| 2026-05-04 07:06 | 49.52790 | 2.58156 | 34973 ft | 457 kts | 150° |
| 2026-05-04 07:07 | 49.47569 | 2.63716 | 34969 ft | 456 kts | 150° |
| 2026-05-04 07:09 | 49.26639 | 2.85856 | 34951 ft | 459 kts | 151° |
| 2026-05-04 07:09 | 49.21376 | 2.91389 | 34969 ft | 459 kts | 151° |
| 2026-05-04 07:10 | 49.16119 | 2.96901 | 34965 ft | 458 kts | 151° |
| 2026-05-04 07:12 | 48.95171 | 3.18718 | 34960 ft | 454 kts | 151° |
| 2026-05-04 07:12 | 48.89947 | 3.24123 | 34972 ft | 454 kts | 151° |
| 2026-05-04 07:13 | 48.84718 | 3.29519 | 34973 ft | 455 kts | 151° |
| 2026-05-04 07:13 | 48.79482 | 3.34908 | 34976 ft | 456 kts | 152° |
| 2026-05-04 07:14 | 48.66363 | 3.48354 | 34952 ft | 457 kts | 152° |
| 2026-05-04 07:15 | 48.61092 | 3.53732 | 34969 ft | 457 kts | 152° |
| 2026-05-04 07:15 | 48.55817 | 3.59099 | 34970 ft | 458 kts | 152° |
| 2026-05-04 07:16 | 48.50526 | 3.64469 | 34974 ft | 459 kts | 152° |
| 2026-05-04 07:16 | 48.45228 | 3.69832 | 34972 ft | 459 kts | 152° |
| 2026-05-04 07:17 | 48.39916 | 3.75196 | 34988 ft | 460 kts | 152° |
| 2026-05-04 07:17 | 48.34596 | 3.80555 | 34980 ft | 460 kts | 152° |
| 2026-05-04 07:18 | 48.29284 | 3.85892 | 34997 ft | 460 kts | 152° |
| 2026-05-04 07:18 | 48.23960 | 3.91228 | 34989 ft | 460 kts | 152° |
| 2026-05-04 07:19 | 48.18634 | 3.96552 | 34986 ft | 460 kts | 152° |
| 2026-05-04 07:19 | 48.13317 | 4.01855 | 34979 ft | 458 kts | 152° |
| 2026-05-04 07:20 | 48.08013 | 4.07130 | 34983 ft | 457 kts | 152° |
| 2026-05-04 07:20 | 48.02707 | 4.12392 | 34982 ft | 458 kts | 152° |
| 2026-05-04 07:22 | 47.81455 | 4.33343 | 34993 ft | 456 kts | 152° |
| 2026-05-04 07:23 | 47.76162 | 4.38528 | 34979 ft | 456 kts | 152° |
| 2026-05-04 07:23 | 47.70903 | 4.43668 | 34977 ft | 456 kts | 152° |
| 2026-05-04 07:24 | 47.65599 | 4.48838 | 34992 ft | 456 kts | 152° |
| 2026-05-04 07:24 | 47.60297 | 4.53995 | 35004 ft | 456 kts | 152° |
| 2026-05-04 07:26 | 47.38973 | 4.74604 | 35013 ft | 459 kts | 152° |
| 2026-05-04 07:27 | 47.33621 | 4.79744 | 35018 ft | 459 kts | 152° |
| 2026-05-04 07:27 | 47.28262 | 4.84880 | 35009 ft | 460 kts | 152° |
| 2026-05-04 07:28 | 47.22901 | 4.90004 | 35022 ft | 459 kts | 152° |
| 2026-05-04 07:28 | 47.17543 | 4.95114 | 35019 ft | 459 kts | 152° |
| 2026-05-04 07:29 | 47.12180 | 5.00216 | 35016 ft | 459 kts | 152° |
| 2026-05-04 07:29 | 47.06816 | 5.05306 | 35024 ft | 459 kts | 152° |
| 2026-05-04 07:30 | 47.01444 | 5.10389 | 35035 ft | 460 kts | 152° |
| 2026-05-04 07:30 | 46.96063 | 5.15471 | 35046 ft | 461 kts | 152° |
| 2026-05-04 07:31 | 46.90668 | 5.20553 | 35039 ft | 461 kts | 152° |
| 2026-05-04 07:33 | 46.69076 | 5.40771 | 35033 ft | 461 kts | 152° |
| 2026-05-04 07:33 | 46.63672 | 5.45800 | 35028 ft | 461 kts | 152° |
| 2026-05-04 07:34 | 46.58262 | 5.50822 | 35026 ft | 462 kts | 152° |
| 2026-05-04 07:34 | 46.52846 | 5.55839 | 35046 ft | 462 kts | 152° |
| 2026-05-04 07:35 | 46.47427 | 5.60846 | 35049 ft | 462 kts | 152° |
| 2026-05-04 07:35 | 46.42005 | 5.65845 | 35023 ft | 462 kts | 152° |
| 2026-05-04 07:36 | 46.36580 | 5.70833 | 35039 ft | 462 kts | 153° |
| 2026-05-04 07:38 | 46.15801 | 5.89832 | 35040 ft | 463 kts | 153° |
| 2026-05-04 07:38 | 46.10348 | 5.94789 | 35044 ft | 463 kts | 153° |
| 2026-05-04 07:39 | 46.04898 | 5.99732 | 35040 ft | 464 kts | 153° |
| 2026-05-04 07:39 | 45.98535 | 6.05487 | 35041 ft | 466 kts | 153° |
| 2026-05-04 07:40 | 45.93935 | 6.09637 | 35053 ft | 467 kts | 153° |
| 2026-05-04 07:40 | 45.88416 | 6.14607 | 35050 ft | 468 kts | 153° |
| 2026-05-04 07:41 | 45.82889 | 6.19573 | 35052 ft | 469 kts | 153° |
| 2026-05-04 07:41 | 45.77390 | 6.24502 | 35040 ft | 469 kts | 153° |
| 2026-05-04 07:42 | 45.71820 | 6.29484 | 35002 ft | 469 kts | 153° |
| 2026-05-04 07:42 | 45.66301 | 6.34406 | 35023 ft | 468 kts | 153° |
| 2026-05-04 07:43 | 45.60756 | 6.39340 | 35035 ft | 470 kts | 153° |
| 2026-05-04 07:43 | 45.55235 | 6.44241 | 35032 ft | 471 kts | 153° |
| 2026-05-04 07:44 | 45.49661 | 6.49181 | 35030 ft | 472 kts | 153° |
| 2026-05-04 07:44 | 45.44083 | 6.54112 | 35063 ft | 472 kts | 153° |
| 2026-05-04 07:45 | 45.38501 | 6.59030 | 35069 ft | 472 kts | 153° |
| 2026-05-04 07:45 | 45.32911 | 6.63944 | 35071 ft | 474 kts | 153° |
| 2026-05-04 07:46 | 45.27307 | 6.68861 | 35106 ft | 472 kts | 153° |
| 2026-05-04 07:46 | 45.21374 | 6.72488 | 35110 ft | 460 kts | 171° |
| 2026-05-04 07:47 | 45.15151 | 6.74260 | 35116 ft | 455 kts | 168° |
| 2026-05-04 07:47 | 45.12249 | 6.76148 | 35112 ft | 468 kts | 148° |
| 2026-05-04 07:49 | 44.93946 | 6.96191 | 35126 ft | 482 kts | 148° |
| 2026-05-04 07:49 | 44.88483 | 7.01703 | 35116 ft | 482 kts | 148° |
| 2026-05-04 07:50 | 44.83046 | 7.07203 | 35123 ft | 480 kts | 148° |
| 2026-05-04 07:50 | 44.77626 | 7.12665 | 35123 ft | 478 kts | 148° |
| 2026-05-04 07:51 | 44.72222 | 7.18093 | 35124 ft | 476 kts | 148° |
| 2026-05-04 07:51 | 44.66827 | 7.23495 | 35106 ft | 477 kts | 148° |
| 2026-05-04 07:52 | 44.61426 | 7.28891 | 35129 ft | 476 kts | 148° |
| 2026-05-04 07:52 | 44.56021 | 7.34279 | 35104 ft | 477 kts | 148° |
| 2026-05-04 07:54 | 44.34275 | 7.55837 | 35122 ft | 479 kts | 149° |
| 2026-05-04 07:55 | 44.28869 | 7.61165 | 35107 ft | 479 kts | 148° |
| 2026-05-04 07:55 | 44.23426 | 7.66517 | 35115 ft | 479 kts | 148° |
| 2026-05-04 07:56 | 44.17971 | 7.71867 | 35126 ft | 480 kts | 148° |
| 2026-05-04 07:56 | 44.12505 | 7.77218 | 35114 ft | 481 kts | 149° |
| 2026-05-04 07:57 | 44.07029 | 7.82565 | 35132 ft | 482 kts | 149° |
| 2026-05-04 07:57 | 44.01538 | 7.87914 | 35130 ft | 482 kts | 149° |
| 2026-05-04 07:58 | 43.96043 | 7.93255 | 35131 ft | 483 kts | 149° |
| 2026-05-04 07:58 | 43.90533 | 7.98599 | 35118 ft | 484 kts | 148° |
| 2026-05-04 07:59 | 43.85014 | 8.03940 | 35121 ft | 484 kts | 148° |
| 2026-05-04 07:59 | 43.79494 | 8.09269 | 35118 ft | 484 kts | 148° |
| 2026-05-04 08:00 | 43.73975 | 8.14584 | 35104 ft | 483 kts | 148° |
| 2026-05-04 08:02 | 43.51807 | 8.35811 | 35065 ft | 487 kts | 148° |
| 2026-05-04 08:02 | 43.46235 | 8.41117 | 35092 ft | 487 kts | 148° |
| 2026-05-04 08:03 | 43.40653 | 8.46419 | 35088 ft | 488 kts | 148° |
| 2026-05-04 08:03 | 43.35066 | 8.51715 | 35069 ft | 488 kts | 149° |
| 2026-05-04 08:04 | 43.29475 | 8.57003 | 35053 ft | 488 kts | 149° |
| 2026-05-04 08:04 | 43.23999 | 8.62550 | 35071 ft | 493 kts | 140° |
| 2026-05-04 08:05 | 43.19414 | 8.69613 | 35091 ft | 500 kts | 128° |
| 2026-05-04 08:05 | 43.15652 | 8.77658 | 35083 ft | 502 kts | 124° |
| 2026-05-04 08:06 | 43.11946 | 8.85756 | 35077 ft | 501 kts | 125° |
| 2026-05-04 08:06 | 43.08213 | 8.93802 | 35077 ft | 500 kts | 125° |
| 2026-05-04 08:08 | 42.93177 | 9.25782 | 35097 ft | 500 kts | 125° |
| 2026-05-04 08:11 | 42.76195 | 9.61506 | 35125 ft | 499 kts | 125° |
| 2026-05-04 08:11 | 42.70504 | 9.73384 | 35126 ft | 500 kts | 125° |
| 2026-05-04 08:12 | 42.66705 | 9.81290 | 35127 ft | 500 kts | 125° |
| 2026-05-04 08:12 | 42.62883 | 9.89182 | 35133 ft | 500 kts | 126° |
| 2026-05-04 08:13 | 42.58939 | 9.96944 | 35128 ft | 499 kts | 127° |
| 2026-05-04 08:13 | 42.54947 | 10.04670 | 35124 ft | 501 kts | 127° |
| 2026-05-04 08:14 | 42.50946 | 10.12435 | 35136 ft | 503 kts | 127° |
| 2026-05-04 08:16 | 42.34850 | 10.43654 | 35143 ft | 505 kts | 127° |
| 2026-05-04 08:16 | 42.30821 | 10.51417 | 35143 ft | 504 kts | 127° |
| 2026-05-04 08:17 | 42.26794 | 10.59155 | 35142 ft | 503 kts | 127° |
| 2026-05-04 08:17 | 42.22768 | 10.66874 | 35144 ft | 502 kts | 127° |
| 2026-05-04 08:19 | 42.06656 | 10.97561 | 35147 ft | 502 kts | 127° |
| 2026-05-04 08:20 | 42.02602 | 11.05234 | 35163 ft | 504 kts | 127° |
| 2026-05-04 08:20 | 41.98524 | 11.12932 | 35164 ft | 507 kts | 128° |
| 2026-05-04 08:21 | 41.94423 | 11.20655 | 35161 ft | 508 kts | 128° |
| 2026-05-04 08:21 | 41.90310 | 11.28382 | 35157 ft | 509 kts | 128° |
| 2026-05-04 08:22 | 41.86189 | 11.36104 | 35156 ft | 508 kts | 127° |
| 2026-05-04 08:24 | 41.70412 | 11.65484 | 35166 ft | 506 kts | 128° |
| 2026-05-04 08:24 | 41.65613 | 11.74363 | 35164 ft | 507 kts | 128° |
| 2026-05-04 08:25 | 41.61481 | 11.81989 | 35173 ft | 507 kts | 128° |
| 2026-05-04 08:25 | 41.58010 | 11.88380 | 35160 ft | 507 kts | 128° |
| 2026-05-04 08:27 | 41.41359 | 12.18856 | 35179 ft | 511 kts | 128° |
| 2026-05-04 08:28 | 41.37160 | 12.26493 | 35176 ft | 511 kts | 128° |
| 2026-05-04 08:28 | 41.32949 | 12.34135 | 35180 ft | 512 kts | 128° |
| 2026-05-04 08:29 | 41.28735 | 12.41764 | 35174 ft | 512 kts | 128° |
| 2026-05-04 08:31 | 41.10076 | 12.70051 | 35188 ft | 509 kts | 136° |
| 2026-05-04 08:33 | 40.90266 | 12.96972 | 35196 ft | 511 kts | 135° |
| 2026-05-04 08:35 | 40.71069 | 13.24802 | 35192 ft | 513 kts | 134° |
| 2026-05-04 08:35 | 40.66239 | 13.31740 | 35191 ft | 514 kts | 134° |
| 2026-05-04 08:37 | 40.49295 | 13.55959 | 35205 ft | 514 kts | 134° |
| 2026-05-04 08:38 | 40.44478 | 13.62811 | 35208 ft | 514 kts | 134° |
| 2026-05-04 08:38 | 40.39623 | 13.69701 | 35191 ft | 514 kts | 134° |
| 2026-05-04 08:40 | 40.20173 | 13.97147 | 35212 ft | 514 kts | 134° |
| 2026-05-04 08:41 | 40.15302 | 14.03982 | 35192 ft | 514 kts | 134° |
| 2026-05-04 08:41 | 40.10430 | 14.10802 | 35193 ft | 514 kts | 134° |
| 2026-05-04 08:42 | 40.05550 | 14.17619 | 35208 ft | 514 kts | 134° |
| 2026-05-04 08:42 | 40.00669 | 14.24422 | 35212 ft | 513 kts | 134° |
| 2026-05-04 08:43 | 39.95784 | 14.31215 | 35197 ft | 513 kts | 134° |
| 2026-05-04 08:43 | 39.90897 | 14.37996 | 35214 ft | 513 kts | 135° |
| 2026-05-04 08:44 | 39.86008 | 14.44763 | 35216 ft | 513 kts | 135° |
| 2026-05-04 08:46 | 39.66415 | 14.71736 | 35213 ft | 513 kts | 135° |
| 2026-05-04 08:46 | 39.61508 | 14.78454 | 35211 ft | 513 kts | 135° |
| 2026-05-04 08:47 | 39.56596 | 14.85165 | 35213 ft | 513 kts | 135° |
| 2026-05-04 08:47 | 39.51677 | 14.91869 | 35201 ft | 513 kts | 135° |
| 2026-05-04 08:48 | 39.46787 | 14.98520 | 35210 ft | 513 kts | 135° |
| 2026-05-04 08:48 | 39.41862 | 15.05203 | 35213 ft | 513 kts | 135° |
| 2026-05-04 08:49 | 39.36930 | 15.11882 | 35212 ft | 513 kts | 135° |
| 2026-05-04 08:50 | 39.19636 | 15.35186 | 35215 ft | 513 kts | 135° |
| 2026-05-04 08:51 | 39.14688 | 15.41821 | 35205 ft | 514 kts | 135° |
| 2026-05-04 08:51 | 39.09735 | 15.48449 | 35210 ft | 514 kts | 135° |
| 2026-05-04 08:52 | 39.04774 | 15.55072 | 35213 ft | 514 kts | 135° |
| 2026-05-04 08:52 | 38.99813 | 15.61682 | 35210 ft | 514 kts | 135° |
| 2026-05-04 08:54 | 38.79912 | 15.88052 | 35214 ft | 514 kts | 135° |
| 2026-05-04 08:55 | 38.74921 | 15.94631 | 35208 ft | 515 kts | 135° |
| 2026-05-04 08:55 | 38.69926 | 16.01200 | 35215 ft | 515 kts | 135° |
| 2026-05-04 09:01 | 38.17004 | 16.69967 | 35208 ft | 519 kts | 135° |
| 2026-05-04 09:01 | 38.11938 | 16.76513 | 35177 ft | 520 kts | 133° |
| 2026-05-04 09:02 | 38.07554 | 16.83726 | 35177 ft | 521 kts | 122° |
| 2026-05-04 09:02 | 38.03744 | 16.91532 | 35192 ft | 521 kts | 121° |
| 2026-05-04 09:03 | 37.99913 | 16.99342 | 35200 ft | 522 kts | 122° |
| 2026-05-04 09:03 | 37.96044 | 17.07121 | 35197 ft | 522 kts | 122° |
| 2026-05-04 09:04 | 37.92147 | 17.14897 | 35196 ft | 523 kts | 122° |
| 2026-05-04 09:04 | 37.88242 | 17.22669 | 35200 ft | 523 kts | 122° |
| 2026-05-04 09:05 | 37.84328 | 17.30444 | 35200 ft | 524 kts | 122° |
| 2026-05-04 09:05 | 37.80415 | 17.38203 | 35204 ft | 524 kts | 122° |
| 2026-05-04 09:06 | 37.76489 | 17.45969 | 35195 ft | 524 kts | 122° |
| 2026-05-04 09:08 | 37.60735 | 17.76953 | 35207 ft | 525 kts | 122° |
| 2026-05-04 09:08 | 37.56773 | 17.84697 | 35199 ft | 526 kts | 122° |
| 2026-05-04 09:09 | 37.52801 | 17.92446 | 35205 ft | 527 kts | 122° |
| 2026-05-04 09:09 | 37.48820 | 18.00193 | 35188 ft | 527 kts | 122° |
| 2026-05-04 09:10 | 37.44833 | 18.07934 | 35200 ft | 527 kts | 122° |
| 2026-05-04 09:10 | 37.40848 | 18.15652 | 35203 ft | 526 kts | 122° |
| 2026-05-04 09:11 | 37.37530 | 18.22065 | 35203 ft | 526 kts | 122° |
| 2026-05-04 09:11 | 37.33541 | 18.29759 | 35204 ft | 525 kts | 122° |
| 2026-05-04 09:12 | 37.29546 | 18.37445 | 35204 ft | 525 kts | 122° |
| 2026-05-04 09:14 | 37.13475 | 18.68195 | 35201 ft | 529 kts | 122° |
| 2026-05-04 09:14 | 37.09431 | 18.75888 | 35207 ft | 529 kts | 123° |
| 2026-05-04 09:15 | 37.05379 | 18.83579 | 35213 ft | 530 kts | 123° |
| 2026-05-04 09:15 | 37.01315 | 18.91277 | 35209 ft | 530 kts | 123° |
| 2026-05-04 09:17 | 36.83453 | 19.26255 | 35204 ft | 533 kts | 121° |
| 2026-05-04 09:18 | 36.79495 | 19.34071 | 35226 ft | 534 kts | 121° |
| 2026-05-04 09:18 | 36.77504 | 19.37989 | 35429 ft | 536 kts | 121° |
| 2026-05-04 09:18 | 36.75508 | 19.41911 | 35751 ft | 534 kts | 121° |
| 2026-05-04 09:19 | 36.73522 | 19.45810 | 36118 ft | 532 kts | 121° |
| 2026-05-04 09:19 | 36.71538 | 19.49702 | 36415 ft | 533 kts | 121° |
| 2026-05-04 09:19 | 36.69547 | 19.53604 | 36666 ft | 533 kts | 121° |
| 2026-05-04 09:19 | 36.67559 | 19.57497 | 36963 ft | 533 kts | 121° |
| 2026-05-04 09:20 | 36.65567 | 19.61392 | 37165 ft | 533 kts | 121° |
| 2026-05-04 09:20 | 36.63570 | 19.65295 | 37193 ft | 535 kts | 122° |
| 2026-05-04 09:20 | 36.59570 | 19.73094 | 37199 ft | 532 kts | 122° |
| 2026-05-04 09:21 | 36.55598 | 19.80823 | 37218 ft | 529 kts | 122° |
| 2026-05-04 09:21 | 36.51631 | 19.88523 | 37209 ft | 529 kts | 122° |
| 2026-05-04 09:22 | 36.47650 | 19.96234 | 37202 ft | 531 kts | 122° |
| 2026-05-04 09:22 | 36.43652 | 20.03960 | 37215 ft | 532 kts | 122° |
| 2026-05-04 09:23 | 36.39635 | 20.11704 | 37216 ft | 534 kts | 122° |
| 2026-05-04 09:23 | 36.35603 | 20.19460 | 37219 ft | 536 kts | 122° |
| 2026-05-04 09:25 | 36.19341 | 20.50563 | 37225 ft | 539 kts | 122° |
| 2026-05-04 09:26 | 36.15249 | 20.58344 | 37216 ft | 539 kts | 122° |
| 2026-05-04 09:26 | 36.11160 | 20.66104 | 37194 ft | 538 kts | 122° |
| 2026-05-04 09:27 | 36.07096 | 20.73798 | 37204 ft | 538 kts | 122° |
| 2026-05-04 09:27 | 36.03005 | 20.81526 | 37237 ft | 537 kts | 122° |
| 2026-05-04 09:28 | 35.98905 | 20.89252 | 37221 ft | 538 kts | 122° |
| 2026-05-04 09:28 | 35.94797 | 20.96977 | 37218 ft | 538 kts | 122° |
| 2026-05-04 09:29 | 35.90683 | 21.04696 | 37216 ft | 539 kts | 122° |
| 2026-05-04 09:29 | 35.86561 | 21.12413 | 37213 ft | 539 kts | 122° |
| 2026-05-04 09:30 | 35.82433 | 21.20123 | 37222 ft | 539 kts | 122° |
| 2026-05-04 09:30 | 35.78296 | 21.27834 | 37217 ft | 540 kts | 122° |
| 2026-05-04 09:31 | 35.74154 | 21.35537 | 37210 ft | 540 kts | 122° |
| 2026-05-04 09:31 | 35.70006 | 21.43233 | 37216 ft | 540 kts | 123° |
| 2026-05-04 09:32 | 35.65851 | 21.50925 | 37216 ft | 540 kts | 123° |
| 2026-05-04 09:34 | 35.49173 | 21.81630 | 37229 ft | 540 kts | 123° |
| 2026-05-04 09:34 | 35.44990 | 21.89289 | 37221 ft | 540 kts | 123° |
| 2026-05-04 09:35 | 35.40800 | 21.96943 | 37196 ft | 540 kts | 123° |
| 2026-05-04 09:35 | 35.36612 | 22.04579 | 37210 ft | 540 kts | 123° |
| 2026-05-04 09:37 | 35.19822 | 22.35021 | 37215 ft | 541 kts | 123° |
| 2026-05-04 09:38 | 35.15601 | 22.42632 | 37220 ft | 541 kts | 123° |
| 2026-05-04 09:38 | 35.11371 | 22.50243 | 37208 ft | 542 kts | 123° |
| 2026-05-04 09:39 | 35.07130 | 22.57858 | 37215 ft | 542 kts | 123° |
| 2026-05-04 09:39 | 35.02883 | 22.65468 | 37216 ft | 542 kts | 124° |
| 2026-05-04 09:40 | 34.98630 | 22.73070 | 37216 ft | 543 kts | 124° |
| 2026-05-04 09:40 | 34.94372 | 22.80665 | 37236 ft | 543 kts | 124° |
| 2026-05-04 09:42 | 34.77243 | 23.11058 | 37228 ft | 544 kts | 124° |
| 2026-05-04 09:43 | 34.72944 | 23.18646 | 37217 ft | 545 kts | 124° |
| 2026-05-04 09:43 | 34.68632 | 23.26240 | 37175 ft | 546 kts | 124° |
| 2026-05-04 09:44 | 34.64319 | 23.33821 | 37211 ft | 546 kts | 124° |
| 2026-05-04 09:46 | 34.46990 | 23.64111 | 37198 ft | 546 kts | 125° |
| 2026-05-04 09:46 | 34.42648 | 23.71663 | 37201 ft | 546 kts | 125° |
| 2026-05-04 09:47 | 34.38300 | 23.79207 | 37195 ft | 546 kts | 125° |
| 2026-05-04 09:49 | 34.20874 | 24.09288 | 37201 ft | 545 kts | 126° |
| 2026-05-04 09:51 | 34.05612 | 24.35432 | 37196 ft | 545 kts | 126° |
| 2026-05-04 09:51 | 34.01189 | 24.42856 | 37188 ft | 545 kts | 130° |
| 2026-05-04 09:52 | 33.96021 | 24.49499 | 37193 ft | 541 kts | 141° |
| 2026-05-04 09:52 | 33.90366 | 24.55471 | 37188 ft | 541 kts | 142° |
| 2026-05-04 09:53 | 33.84709 | 24.61448 | 37192 ft | 542 kts | 141° |
| 2026-05-04 09:53 | 33.79074 | 24.67462 | 37190 ft | 542 kts | 141° |
| 2026-05-04 09:54 | 33.73437 | 24.73501 | 37189 ft | 543 kts | 141° |
| 2026-05-04 09:54 | 33.67805 | 24.79527 | 37189 ft | 543 kts | 141° |
| 2026-05-04 09:55 | 33.62158 | 24.85553 | 37163 ft | 542 kts | 141° |
| 2026-05-04 09:55 | 33.56521 | 24.91553 | 37180 ft | 542 kts | 141° |
| 2026-05-04 09:56 | 33.50884 | 24.97542 | 37189 ft | 541 kts | 141° |
| 2026-05-04 09:56 | 33.45250 | 25.03518 | 37189 ft | 541 kts | 142° |
| 2026-05-04 09:57 | 33.39612 | 25.09487 | 37189 ft | 541 kts | 142° |
| 2026-05-04 09:57 | 33.33979 | 25.15440 | 37185 ft | 540 kts | 142° |
| 2026-05-04 09:58 | 33.28342 | 25.21387 | 37186 ft | 540 kts | 142° |
| 2026-05-04 09:58 | 33.23659 | 25.26318 | 37189 ft | 540 kts | 142° |
| 2026-05-04 10:00 | 33.01096 | 25.49979 | 37160 ft | 540 kts | 142° |
| 2026-05-04 10:04 | 32.61515 | 25.91086 | 37182 ft | 539 kts | 143° |
| 2026-05-04 10:04 | 32.55859 | 25.96919 | 37185 ft | 539 kts | 143° |
| 2026-05-04 10:05 | 32.50205 | 26.02740 | 37184 ft | 538 kts | 143° |
| 2026-05-04 10:05 | 32.44561 | 26.08539 | 37184 ft | 537 kts | 143° |
| 2026-05-04 10:06 | 32.38916 | 26.14331 | 37155 ft | 537 kts | 143° |
| 2026-05-04 10:06 | 32.33284 | 26.20099 | 37182 ft | 535 kts | 144° |
| 2026-05-04 10:08 | 32.13593 | 26.40189 | 37179 ft | 536 kts | 144° |
| 2026-05-04 10:08 | 32.07946 | 26.45928 | 37191 ft | 536 kts | 144° |
| 2026-05-04 10:09 | 32.02289 | 26.51669 | 37183 ft | 536 kts | 144° |
| 2026-05-04 10:09 | 31.96635 | 26.57396 | 37182 ft | 536 kts | 145° |
| 2026-05-04 10:10 | 31.90973 | 26.63121 | 37187 ft | 537 kts | 145° |
| 2026-05-04 10:10 | 31.85307 | 26.68841 | 37193 ft | 537 kts | 145° |
| 2026-05-04 10:11 | 31.79639 | 26.74553 | 37194 ft | 537 kts | 145° |
| 2026-05-04 10:11 | 31.73967 | 26.80261 | 37161 ft | 537 kts | 145° |
| 2026-05-04 10:12 | 31.68299 | 26.85955 | 37198 ft | 536 kts | 146° |
| 2026-05-04 10:12 | 31.62631 | 26.91639 | 37210 ft | 536 kts | 146° |
| 2026-05-04 10:13 | 31.56999 | 26.97277 | 37209 ft | 536 kts | 146° |
| 2026-05-04 10:13 | 31.51292 | 27.02983 | 37205 ft | 536 kts | 146° |
| 2026-05-04 10:14 | 31.45616 | 27.08647 | 37210 ft | 536 kts | 146° |
| 2026-05-04 10:16 | 31.27166 | 27.30295 | 37220 ft | 549 kts | 128° |
| 2026-05-04 10:16 | 31.25071 | 27.34022 | 37214 ft | 549 kts | 127° |
| 2026-05-04 10:16 | 31.20854 | 27.41462 | 37207 ft | 549 kts | 128° |
| 2026-05-04 10:17 | 31.16578 | 27.48838 | 37200 ft | 548 kts | 128° |
| 2026-05-04 10:19 | 30.99252 | 27.77981 | 37173 ft | 545 kts | 129° |
| 2026-05-04 10:19 | 30.94941 | 27.85170 | 37178 ft | 545 kts | 129° |
| 2026-05-04 10:20 | 30.90598 | 27.92405 | 37177 ft | 545 kts | 129° |
| 2026-05-04 10:20 | 30.86251 | 27.99633 | 37173 ft | 545 kts | 129° |
| 2026-05-04 10:21 | 30.81898 | 28.06855 | 37175 ft | 545 kts | 130° |
| 2026-05-04 10:21 | 30.77536 | 28.14079 | 37167 ft | 545 kts | 130° |
| 2026-05-04 10:22 | 30.70988 | 28.24899 | 37158 ft | 545 kts | 130° |
| 2026-05-04 10:23 | 30.66621 | 28.32099 | 37156 ft | 545 kts | 130° |
| 2026-05-04 10:25 | 30.49206 | 28.60681 | 37149 ft | 540 kts | 131° |
| 2026-05-04 10:25 | 30.44895 | 28.67726 | 37140 ft | 539 kts | 131° |
| 2026-05-04 10:26 | 30.40547 | 28.74817 | 37145 ft | 539 kts | 131° |
| 2026-05-04 10:26 | 30.36200 | 28.81894 | 37149 ft | 539 kts | 131° |
| 2026-05-04 10:27 | 30.31844 | 28.88975 | 37146 ft | 540 kts | 131° |
| 2026-05-04 10:27 | 30.27485 | 28.96046 | 37140 ft | 540 kts | 131° |
| 2026-05-04 10:28 | 30.23119 | 29.03120 | 37097 ft | 540 kts | 131° |
| 2026-05-04 10:28 | 30.18752 | 29.10184 | 37131 ft | 539 kts | 132° |
| 2026-05-04 10:29 | 30.14380 | 29.17232 | 37124 ft | 539 kts | 132° |
| 2026-05-04 10:29 | 30.10029 | 29.24289 | 37127 ft | 540 kts | 131° |
| 2026-05-04 10:30 | 30.05741 | 29.31414 | 37123 ft | 541 kts | 131° |
| 2026-05-04 10:30 | 30.01459 | 29.38547 | 37123 ft | 540 kts | 131° |
| 2026-05-04 10:31 | 29.97166 | 29.45658 | 37126 ft | 540 kts | 131° |
| 2026-05-04 10:32 | 29.82129 | 29.70406 | 37128 ft | 539 kts | 131° |
| 2026-05-04 10:33 | 29.77820 | 29.77471 | 37130 ft | 539 kts | 131° |
| 2026-05-04 10:33 | 29.73509 | 29.84528 | 37122 ft | 539 kts | 132° |
| 2026-05-04 10:34 | 29.69191 | 29.91584 | 37130 ft | 539 kts | 132° |
| 2026-05-04 10:34 | 29.64871 | 29.98630 | 37132 ft | 539 kts | 132° |
| 2026-05-04 10:35 | 29.60544 | 30.05677 | 37129 ft | 539 kts | 132° |
| 2026-05-04 10:35 | 29.56214 | 30.12716 | 37126 ft | 540 kts | 132° |
| 2026-05-04 10:36 | 29.51880 | 30.19752 | 37135 ft | 540 kts | 132° |
| 2026-05-04 10:36 | 29.47541 | 30.26782 | 37133 ft | 540 kts | 132° |
| 2026-05-04 10:37 | 29.43198 | 30.33811 | 37136 ft | 540 kts | 132° |
| 2026-05-04 10:37 | 29.38724 | 30.40691 | 37103 ft | 533 kts | 139° |
| 2026-05-04 10:39 | 29.20857 | 30.61833 | 37143 ft | 528 kts | 142° |
| 2026-05-04 10:40 | 29.15758 | 30.67892 | 37141 ft | 528 kts | 142° |
| 2026-05-04 10:40 | 29.10657 | 30.73943 | 37153 ft | 529 kts | 142° |
| 2026-05-04 10:41 | 29.05546 | 30.79991 | 37149 ft | 529 kts | 142° |
| 2026-05-04 10:41 | 29.00439 | 30.86024 | 37148 ft | 527 kts | 142° |
| 2026-05-04 10:42 | 28.95338 | 30.92041 | 37149 ft | 527 kts | 142° |
| 2026-05-04 10:42 | 28.90234 | 30.98051 | 37156 ft | 527 kts | 142° |
| 2026-05-04 10:43 | 28.85173 | 31.04004 | 37161 ft | 526 kts | 142° |
| 2026-05-04 10:45 | 28.64858 | 31.27893 | 36917 ft | 525 kts | 144° |
| 2026-05-04 10:45 | 28.62180 | 31.30711 | 36731 ft | 523 kts | 148° |
| 2026-05-04 10:45 | 28.59305 | 31.33203 | 36525 ft | 517 kts | 155° |
| 2026-05-04 10:45 | 28.56214 | 31.35220 | 36324 ft | 508 kts | 165° |
| 2026-05-04 10:46 | 28.52947 | 31.36606 | 36126 ft | 495 kts | 175° |
| 2026-05-04 10:46 | 28.49604 | 31.37235 | 35930 ft | 481 kts | 187° |
| 2026-05-04 10:46 | 28.46326 | 31.37016 | 35703 ft | 465 kts | 200° |
| 2026-05-04 10:46 | 28.43304 | 31.35913 | 35451 ft | 450 kts | 214° |
| 2026-05-04 10:47 | 28.40752 | 31.33962 | 35153 ft | 438 kts | 229° |
| 2026-05-04 10:47 | 28.39426 | 31.32258 | 34984 ft | 433 kts | 239° |
| 2026-05-04 10:47 | 28.38129 | 31.29217 | 34686 ft | 429 kts | 256° |
| 2026-05-04 10:47 | 28.37828 | 31.25849 | 34387 ft | 433 kts | 274° |
| 2026-05-04 10:49 | 28.57290 | 31.17322 | 33575 ft | 484 kts | 354° |
| 2026-05-04 10:49 | 28.60621 | 31.17545 | 33677 ft | 474 kts | 354° |
| 2026-05-04 10:50 | 28.63864 | 31.17738 | 33882 ft | 461 kts | 353° |
| 2026-05-04 10:51 | 28.85564 | 31.19956 | 33392 ft | 435 kts | 358° |
| 2026-05-04 10:52 | 28.88555 | 31.20404 | 33288 ft | 431 kts | 357° |
| 2026-05-04 10:52 | 28.94408 | 31.21325 | 32953 ft | 429 kts | 358° |
| 2026-05-04 10:54 | 29.12621 | 31.32031 | 32350 ft | 447 kts | 40° |
| 2026-05-04 10:54 | 29.14749 | 31.34627 | 32219 ft | 446 kts | 41° |
| 2026-05-04 10:56 | 29.28430 | 31.54576 | 30692 ft | 461 kts | 60° |
| 2026-05-04 10:56 | 29.29664 | 31.58000 | 30310 ft | 469 kts | 68° |
| 2026-05-04 10:56 | 29.30773 | 31.61547 | 29854 ft | 475 kts | 68° |
| 2026-05-04 10:57 | 29.31859 | 31.65122 | 29592 ft | 476 kts | 69° |
| 2026-05-04 10:57 | 29.32933 | 31.68710 | 29347 ft | 476 kts | 69° |
| 2026-05-04 10:57 | 29.33998 | 31.72299 | 29107 ft | 476 kts | 69° |
| 2026-05-04 10:57 | 29.35067 | 31.75914 | 28665 ft | 481 kts | 69° |
| 2026-05-04 10:58 | 29.36153 | 31.79567 | 28145 ft | 488 kts | 69° |
| 2026-05-04 10:58 | 29.37272 | 31.83258 | 27725 ft | 492 kts | 68° |
| 2026-05-04 10:58 | 29.38420 | 31.86946 | 27566 ft | 489 kts | 67° |
| 2026-05-04 10:58 | 29.39585 | 31.90579 | 27533 ft | 482 kts | 66° |
| 2026-05-04 10:59 | 29.40775 | 31.94177 | 27240 ft | 483 kts | 66° |
| 2026-05-04 10:59 | 29.42013 | 31.97780 | 26766 ft | 488 kts | 65° |
| 2026-05-04 10:59 | 29.43310 | 32.01385 | 26508 ft | 488 kts | 64° |
| 2026-05-04 10:59 | 29.44647 | 32.04963 | 26101 ft | 491 kts | 63° |
| 2026-05-04 11:00 | 29.46020 | 32.08567 | 25723 ft | 494 kts | 63° |
| 2026-05-04 11:01 | 29.53257 | 32.35271 | 24124 ft | 480 kts | 93° |
| 2026-05-04 11:02 | 29.52946 | 32.39053 | 24101 ft | 474 kts | 100° |
| 2026-05-04 11:02 | 29.52332 | 32.42767 | 23896 ft | 472 kts | 106° |
| 2026-05-04 11:05 | 29.22854 | 32.81289 | 12366 ft | 447 kts | 149° |
| 2026-05-04 11:06 | 29.20326 | 32.83354 | 11644 ft | 446 kts | 150° |
| 2026-05-04 11:06 | 29.17772 | 32.85349 | 11028 ft | 443 kts | 151° |
| 2026-05-04 11:06 | 29.15199 | 32.87250 | 10482 ft | 438 kts | 153° |
| 2026-05-04 11:06 | 29.12607 | 32.89009 | 10042 ft | 430 kts | 155° |
| 2026-05-04 11:08 | 28.97514 | 32.98907 | 7988 ft | 386 kts | 155° |
| 2026-05-04 11:10 | 28.81162 | 33.07401 | 6258 ft | 371 kts | 160° |
| 2026-05-04 11:12 | 28.64801 | 33.14862 | 3541 ft | 356 kts | 159° |
| 2026-05-04 11:12 | 28.62477 | 33.15822 | 3193 ft | 353 kts | 163° |
| 2026-05-04 11:12 | 28.60138 | 33.16499 | 3094 ft | 340 kts | 171° |
| 2026-05-04 11:12 | 28.57808 | 33.16907 | 2711 ft | 339 kts | 172° |
| 2026-05-04 11:13 | 28.55481 | 33.17428 | 2223 ft | 343 kts | 168° |
| 2026-05-04 11:13 | 28.53153 | 33.18120 | 1588 ft | 350 kts | 163° |
| 2026-05-04 11:13 | 28.50818 | 33.19043 | 905 ft | 359 kts | 158° |
| 2026-05-04 11:13 | 28.48494 | 33.20132 | 405 ft | 362 kts | 156° |
| 2026-05-04 11:14 | 28.46211 | 33.21273 | 182 ft | 354 kts | 155° |
| 2026-05-04 11:14 | 28.44002 | 33.22427 | 94 ft | 344 kts | 155° |
| 2026-05-04 11:14 | 28.41868 | 33.23575 | 33 ft | 335 kts | 155° |
| 2026-05-04 11:16 | 28.38390 | 33.25477 | 12 ft | 6 kts | 153° |
| 2026-05-04 11:16 | 28.38360 | 33.25494 | 11 ft | 4 kts | 153° |
| 2026-05-04 11:16 | 28.38329 | 33.25511 | 11 ft | 5 kts | 153° |
| 2026-05-04 11:17 | 28.38297 | 33.25529 | 14 ft | 3 kts | 153° |
| 2026-05-04 11:17 | 28.38296 | 33.25530 | 14 ft | 4 kts | 153° |